Weather at Pinang Kampai Airport

Public forecast

Using degrees Celsius for public forecast. Weather courtesy of forecast.io.

Closest aviation weather report (METAR) to Pinang Kampai Airport

Closest report is Malacca International Airport, 63.0 nm (116.7 km) NE.

2024/05/25 12:00 (retrieved 12 minutes ago)

WMKM 251200Z 09007KT 070V130 9999 FEW027 29/25 Q1008

Closest aviation forecast (TAF) to Pinang Kampai Airport

Closest forecast is Malacca International Airport, 63.0 nm (116.7 km) NE.

2024/05/25 12:00 (retrieved 12 minutes ago)

TAF WMKM 251100Z 2512/2612 VRB03KT 9999 FEW027 PROB30 TEMPO 2512/2515 5000 TSRA FEW017CB